sensor_id;sensor_type;location;lat;lon;timestamp;pressure;altitude;pressure_sealevel;temperature;humidity
68793;BME280;55778;54.346;10.210;2022-08-21T00:01:56;101257.88;;;13.56;90.37
68793;BME280;55778;54.346;10.210;2022-08-21T00:04:24;101246.41;;;13.53;90.67
68793;BME280;55778;54.346;10.210;2022-08-21T00:06:50;101256.97;;;13.65;89.68
68793;BME280;55778;54.346;10.210;2022-08-21T00:09:17;101248.09;;;13.54;89.54
68793;BME280;55778;54.346;10.210;2022-08-21T00:11:46;101244.94;;;13.49;89.97
68793;BME280;55778;54.346;10.210;2022-08-21T00:14:12;101247.84;;;13.47;90.03
68793;BME280;55778;54.346;10.210;2022-08-21T00:16:38;101247.09;;;13.55;89.95
68793;BME280;55778;54.346;10.210;2022-08-21T00:19:06;101243.28;;;13.65;89.70
68793;BME280;55778;54.346;10.210;2022-08-21T00:21:41;101246.56;;;13.69;89.90
68793;BME280;55778;54.346;10.210;2022-08-21T00:24:06;101238.50;;;13.67;89.36
68793;BME280;55778;54.346;10.210;2022-08-21T00:26:32;101238.25;;;13.61;89.37
68793;BME280;55778;54.346;10.210;2022-08-21T00:28:57;101239.81;;;13.63;89.32
68793;BME280;55778;54.346;10.210;2022-08-21T00:31:23;101235.84;;;13.75;89.08
68793;BME280;55778;54.346;10.210;2022-08-21T00:33:48;101234.31;;;13.90;87.95
68793;BME280;55778;54.346;10.210;2022-08-21T00:36:14;101232.94;;;13.77;88.34
68793;BME280;55778;54.346;10.210;2022-08-21T00:38:40;101232.00;;;13.68;88.63
68793;BME280;55778;54.346;10.210;2022-08-21T00:41:07;101235.63;;;13.69;88.56
68793;BME280;55778;54.346;10.210;2022-08-21T00:43:35;101236.91;;;13.65;88.86
68793;BME280;55778;54.346;10.210;2022-08-21T00:46:04;101241.44;;;13.56;89.36
68793;BME280;55778;54.346;10.210;2022-08-21T00:48:30;101237.78;;;13.65;88.94
68793;BME280;55778;54.346;10.210;2022-08-21T00:51:20;101246.25;;;13.54;89.83
68793;BME280;55778;54.346;10.210;2022-08-21T00:53:51;101245.25;;;13.46;90.14
68793;BME280;55778;54.346;10.210;2022-08-21T00:56:19;101233.66;;;13.34;90.35
68793;BME280;55778;54.346;10.210;2022-08-21T00:58:46;101247.84;;;13.47;90.32
68793;BME280;55778;54.346;10.210;2022-08-21T01:01:13;101248.16;;;13.44;89.73
68793;BME280;55778;54.346;10.210;2022-08-21T01:03:41;101250.81;;;13.36;89.92
68793;BME280;55778;54.346;10.210;2022-08-21T01:06:08;101245.94;;;13.30;90.77
68793;BME280;55778;54.346;10.210;2022-08-21T01:08:34;101252.84;;;13.25;91.34
68793;BME280;55778;54.346;10.210;2022-08-21T01:11:01;101247.13;;;13.18;91.35
68793;BME280;55778;54.346;10.210;2022-08-21T01:13:28;101248.69;;;13.21;91.02
68793;BME280;55778;54.346;10.210;2022-08-21T01:15:57;101253.28;;;13.30;91.20
68793;BME280;55778;54.346;10.210;2022-08-21T01:18:25;101251.25;;;13.32;90.34
68793;BME280;55778;54.346;10.210;2022-08-21T01:23:37;101256.03;;;13.20;91.19
68793;BME280;55778;54.346;10.210;2022-08-21T01:26:04;101257.38;;;13.16;91.21
68793;BME280;55778;54.346;10.210;2022-08-21T01:28:34;101248.75;;;13.11;91.39
68793;BME280;55778;54.346;10.210;2022-08-21T01:31:02;101252.19;;;13.13;91.52
68793;BME280;55778;54.346;10.210;2022-08-21T01:33:30;101257.63;;;13.23;90.81
68793;BME280;55778;54.346;10.210;2022-08-21T01:35:56;101251.00;;;13.25;90.54
68793;BME280;55778;54.346;10.210;2022-08-21T01:38:22;101256.28;;;13.36;90.04
68793;BME280;55778;54.346;10.210;2022-08-21T01:40:48;101261.78;;;13.27;89.84
68793;BME280;55778;54.346;10.210;2022-08-21T01:43:13;101257.06;;;13.19;90.49
68793;BME280;55778;54.346;10.210;2022-08-21T01:45:39;101263.09;;;13.23;90.17
68793;BME280;55778;54.346;10.210;2022-08-21T01:48:05;101260.72;;;13.37;89.74
68793;BME280;55778;54.346;10.210;2022-08-21T01:50:30;101250.59;;;13.47;88.71
68793;BME280;55778;54.346;10.210;2022-08-21T01:52:56;101256.66;;;13.41;89.69
68793;BME280;55778;54.346;10.210;2022-08-21T01:55:23;101255.00;;;13.31;89.95
68793;BME280;55778;54.346;10.210;2022-08-21T01:57:48;101261.06;;;13.25;89.74
68793;BME280;55778;54.346;10.210;2022-08-21T02:00:16;101255.75;;;13.23;90.36
68793;BME280;55778;54.346;10.210;2022-08-21T02:02:42;101246.13;;;13.19;90.42
68793;BME280;55778;54.346;10.210;2022-08-21T02:05:09;101245.09;;;13.20;89.89
68793;BME280;55778;54.346;10.210;2022-08-21T02:07:49;101251.34;;;13.13;90.22
68793;BME280;55778;54.346;10.210;2022-08-21T02:10:19;101250.91;;;13.08;90.58
68793;BME280;55778;54.346;10.210;2022-08-21T02:12:46;101257.72;;;13.04;91.17
68793;BME280;55778;54.346;10.210;2022-08-21T02:15:11;101251.53;;;13.02;91.52
68793;BME280;55778;54.346;10.210;2022-08-21T02:17:59;101247.47;;;12.96;91.39
68793;BME280;55778;54.346;10.210;2022-08-21T02:20:32;101250.50;;;13.03;91.71
68793;BME280;55778;54.346;10.210;2022-08-21T02:22:58;101253.09;;;13.04;91.51
68793;BME280;55778;54.346;10.210;2022-08-21T02:25:24;101246.06;;;13.02;91.33
68793;BME280;55778;54.346;10.210;2022-08-21T02:27:50;101252.41;;;13.02;91.12
68793;BME280;55778;54.346;10.210;2022-08-21T02:30:20;101251.66;;;13.00;91.40
68793;BME280;55778;54.346;10.210;2022-08-21T02:32:46;101247.47;;;12.96;91.00
68793;BME280;55778;54.346;10.210;2022-08-21T02:35:12;101253.78;;;12.97;91.33
68793;BME280;55778;54.346;10.210;2022-08-21T02:37:58;101249.97;;;12.99;90.80
68793;BME280;55778;54.346;10.210;2022-08-21T02:40:27;101254.09;;;12.94;91.01
68793;BME280;55778;54.346;10.210;2022-08-21T02:42:53;101254.97;;;12.94;91.30
68793;BME280;55778;54.346;10.210;2022-08-21T02:45:19;101249.50;;;12.94;90.44
68793;BME280;55778;54.346;10.210;2022-08-21T02:48:01;101251.94;;;12.88;90.95
68793;BME280;55778;54.346;10.210;2022-08-21T02:50:39;101259.31;;;12.87;90.96
68793;BME280;55778;54.346;10.210;2022-08-21T02:53:07;101248.38;;;12.78;91.13
68793;BME280;55778;54.346;10.210;2022-08-21T02:55:36;101250.59;;;12.74;90.78
68793;BME280;55778;54.346;10.210;2022-08-21T02:58:03;101257.75;;;12.75;90.67
68793;BME280;55778;54.346;10.210;2022-08-21T03:00:30;101251.31;;;12.67;90.82
68793;BME280;55778;54.346;10.210;2022-08-21T03:02:57;101243.25;;;12.65;90.95
68793;BME280;55778;54.346;10.210;2022-08-21T03:05:24;101238.22;;;12.61;91.83
68793;BME280;55778;54.346;10.210;2022-08-21T03:07:50;101244.00;;;12.58;91.50
68793;BME280;55778;54.346;10.210;2022-08-21T03:10:18;101248.00;;;12.54;91.90
68793;BME280;55778;54.346;10.210;2022-08-21T03:12:45;101247.84;;;12.55;91.70
68793;BME280;55778;54.346;10.210;2022-08-21T03:15:13;101247.56;;;12.58;92.09
68793;BME280;55778;54.346;10.210;2022-08-21T03:17:39;101235.34;;;12.53;91.68
68793;BME280;55778;54.346;10.210;2022-08-21T03:20:07;101242.41;;;12.55;91.57
68793;BME280;55778;54.346;10.210;2022-08-21T03:22:33;101231.75;;;12.52;91.85
68793;BME280;55778;54.346;10.210;2022-08-21T03:24:58;101226.91;;;12.46;92.16
68793;BME280;55778;54.346;10.210;2022-08-21T03:27:24;101232.78;;;12.51;91.67
68793;BME280;55778;54.346;10.210;2022-08-21T03:29:52;101227.75;;;12.47;91.91
68793;BME280;55778;54.346;10.210;2022-08-21T03:32:18;101242.53;;;12.54;91.92
68793;BME280;55778;54.346;10.210;2022-08-21T03:34:45;101228.72;;;12.55;91.59
68793;BME280;55778;54.346;10.210;2022-08-21T03:37:11;101227.31;;;12.51;91.90
68793;BME280;55778;54.346;10.210;2022-08-21T03:39:36;101206.88;;;12.46;92.10
68793;BME280;55778;54.346;10.210;2022-08-21T03:42:02;101220.28;;;12.49;91.97
68793;BME280;55778;54.346;10.210;2022-08-21T03:44:27;101215.97;;;12.46;91.80
68793;BME280;55778;54.346;10.210;2022-08-21T03:46:57;101220.56;;;12.46;92.21
68793;BME280;55778;54.346;10.210;2022-08-21T03:49:22;101215.78;;;12.48;92.37
68793;BME280;55778;54.346;10.210;2022-08-21T03:51:48;101219.09;;;12.51;92.03
68793;BME280;55778;54.346;10.210;2022-08-21T03:54:13;101221.09;;;12.49;92.01
68793;BME280;55778;54.346;10.210;2022-08-21T03:56:38;101234.63;;;12.51;91.95
68793;BME280;55778;54.346;10.210;2022-08-21T03:59:05;101228.63;;;12.47;92.00
68793;BME280;55778;54.346;10.210;2022-08-21T04:01:31;101225.44;;;12.42;91.79
68793;BME280;55778;54.346;10.210;2022-08-21T04:03:56;101233.94;;;12.39;92.01
68793;BME280;55778;54.346;10.210;2022-08-21T04:06:22;101229.78;;;12.35;91.93
68793;BME280;55778;54.346;10.210;2022-08-21T04:08:47;101229.06;;;12.33;92.35
68793;BME280;55778;54.346;10.210;2022-08-21T04:11:13;101227.34;;;12.32;92.26
68793;BME280;55778;54.346;10.210;2022-08-21T04:13:40;101221.88;;;12.32;92.66
68793;BME280;55778;54.346;10.210;2022-08-21T04:16:06;101228.06;;;12.34;92.81
68793;BME280;55778;54.346;10.210;2022-08-21T04:18:32;101224.31;;;12.35;92.86
68793;BME280;55778;54.346;10.210;2022-08-21T04:20:58;101218.69;;;12.37;92.83
68793;BME280;55778;54.346;10.210;2022-08-21T04:23:25;101224.75;;;12.40;92.32
68793;BME280;55778;54.346;10.210;2022-08-21T04:25:52;101223.16;;;12.38;92.93
68793;BME280;55778;54.346;10.210;2022-08-21T04:28:17;101222.03;;;12.40;92.14
68793;BME280;55778;54.346;10.210;2022-08-21T04:30:43;101217.97;;;12.35;92.54
68793;BME280;55778;54.346;10.210;2022-08-21T04:33:09;101229.47;;;12.48;92.13
68793;BME280;55778;54.346;10.210;2022-08-21T04:35:34;101223.84;;;12.49;91.65
68793;BME280;55778;54.346;10.210;2022-08-21T04:38:00;101230.19;;;12.50;91.62
68793;BME280;55778;54.346;10.210;2022-08-21T04:40:27;101229.47;;;12.48;91.90
68793;BME280;55778;54.346;10.210;2022-08-21T04:43:03;101235.09;;;12.46;92.34
68793;BME280;55778;54.346;10.210;2022-08-21T04:45:35;101231.50;;;12.46;92.28
68793;BME280;55778;54.346;10.210;2022-08-21T04:48:03;101234.63;;;12.51;91.81
68793;BME280;55778;54.346;10.210;2022-08-21T04:53:01;101218.69;;;12.46;91.60
68793;BME280;55778;54.346;10.210;2022-08-21T04:55:27;101231.88;;;12.60;92.04
68793;BME280;55778;54.346;10.210;2022-08-21T04:57:54;101238.63;;;12.66;92.17
68793;BME280;55778;54.346;10.210;2022-08-21T05:00:22;101235.91;;;12.66;92.32
68793;BME280;55778;54.346;10.210;2022-08-21T05:02:50;101239.22;;;12.69;91.57
68793;BME280;55778;54.346;10.210;2022-08-21T05:05:19;101231.59;;;12.73;92.21
68793;BME280;55778;54.346;10.210;2022-08-21T05:07:45;101236.31;;;12.80;91.84
68793;BME280;55778;54.346;10.210;2022-08-21T05:10:12;101237.88;;;12.83;91.56
68793;BME280;55778;54.346;10.210;2022-08-21T05:12:41;101228.50;;;12.85;91.51
68793;BME280;55778;54.346;10.210;2022-08-21T05:15:09;101236.97;;;13.01;91.07
68793;BME280;55778;54.346;10.210;2022-08-21T05:17:34;101236.22;;;13.09;91.16
68793;BME280;55778;54.346;10.210;2022-08-21T05:20:00;101234.06;;;13.12;90.86
68793;BME280;55778;54.346;10.210;2022-08-21T05:22:29;101237.53;;;13.14;91.02
68793;BME280;55778;54.346;10.210;2022-08-21T05:24:57;101238.72;;;13.29;91.06
68793;BME280;55778;54.346;10.210;2022-08-21T05:27:23;101239.44;;;13.31;90.77
68793;BME280;55778;54.346;10.210;2022-08-21T05:29:51;101235.78;;;13.40;90.68
68793;BME280;55778;54.346;10.210;2022-08-21T05:32:22;101233.09;;;13.58;89.70
68793;BME280;55778;54.346;10.210;2022-08-21T05:34:48;101241.56;;;13.64;89.33
68793;BME280;55778;54.346;10.210;2022-08-21T05:37:13;101239.78;;;13.73;89.13
68793;BME280;55778;54.346;10.210;2022-08-21T05:39:41;101233.81;;;13.77;89.12
68793;BME280;55778;54.346;10.210;2022-08-21T05:42:07;101240.09;;;13.87;89.09
68793;BME280;55778;54.346;10.210;2022-08-21T05:44:33;101246.75;;;14.02;88.71
68793;BME280;55778;54.346;10.210;2022-08-21T05:47:04;101247.69;;;14.11;88.50
68793;BME280;55778;54.346;10.210;2022-08-21T05:49:29;101239.13;;;14.24;87.80
68793;BME280;55778;54.346;10.210;2022-08-21T05:51:55;101240.03;;;14.32;87.92
68793;BME280;55778;54.346;10.210;2022-08-21T05:54:20;101241.03;;;14.49;86.98
68793;BME280;55778;54.346;10.210;2022-08-21T05:56:45;101240.81;;;14.60;87.42
68793;BME280;55778;54.346;10.210;2022-08-21T05:59:11;101241.75;;;14.76;86.61
68793;BME280;55778;54.346;10.210;2022-08-21T06:01:36;101240.63;;;14.87;85.94
68793;BME280;55778;54.346;10.210;2022-08-21T06:04:02;101238.81;;;14.95;85.61
68793;BME280;55778;54.346;10.210;2022-08-21T06:06:27;101236.66;;;15.07;85.80
68793;BME280;55778;54.346;10.210;2022-08-21T06:08:52;101227.28;;;15.17;85.50
68793;BME280;55778;54.346;10.210;2022-08-21T06:11:18;101226.81;;;15.30;84.86
68793;BME280;55778;54.346;10.210;2022-08-21T06:13:43;101226.56;;;15.49;84.33
68793;BME280;55778;54.346;10.210;2022-08-21T06:16:14;101230.97;;;15.75;82.33
68793;BME280;55778;54.346;10.210;2022-08-21T06:18:40;101232.56;;;16.02;79.16
68793;BME280;55778;54.346;10.210;2022-08-21T06:21:06;101222.09;;;16.14;78.39
68793;BME280;55778;54.346;10.210;2022-08-21T06:23:33;101225.00;;;16.20;78.42
68793;BME280;55778;54.346;10.210;2022-08-21T06:25:59;101227.09;;;16.42;76.34
68793;BME280;55778;54.346;10.210;2022-08-21T06:28:25;101217.13;;;16.65;75.31
68793;BME280;55778;54.346;10.210;2022-08-21T06:30:50;101221.41;;;16.68;75.08
68793;BME280;55778;54.346;10.210;2022-08-21T06:33:15;101220.72;;;16.74;75.84
68793;BME280;55778;54.346;10.210;2022-08-21T06:35:41;101219.50;;;16.92;75.67
68793;BME280;55778;54.346;10.210;2022-08-21T06:38:06;101223.59;;;17.04;75.45
68793;BME280;55778;54.346;10.210;2022-08-21T06:40:32;101221.09;;;17.25;75.03
68793;BME280;55778;54.346;10.210;2022-08-21T06:42:57;101215.88;;;17.54;74.55
68793;BME280;55778;54.346;10.210;2022-08-21T06:45:23;101216.81;;;17.69;73.41
68793;BME280;55778;54.346;10.210;2022-08-21T06:47:49;101215.13;;;17.91;70.23
68793;BME280;55778;54.346;10.210;2022-08-21T06:50:14;101221.00;;;18.19;68.45
68793;BME280;55778;54.346;10.210;2022-08-21T06:52:39;101220.34;;;18.31;67.74
68793;BME280;55778;54.346;10.210;2022-08-21T06:55:08;101214.63;;;18.41;67.34
68793;BME280;55778;54.346;10.210;2022-08-21T06:57:34;101215.09;;;18.44;67.25
68793;BME280;55778;54.346;10.210;2022-08-21T06:59:59;101226.06;;;18.75;66.43
68793;BME280;55778;54.346;10.210;2022-08-21T07:02:25;101205.69;;;18.90;65.84
68793;BME280;55778;54.346;10.210;2022-08-21T07:04:50;101199.53;;;19.03;64.27
68793;BME280;55778;54.346;10.210;2022-08-21T07:07:16;101205.81;;;19.11;64.74
68793;BME280;55778;54.346;10.210;2022-08-21T07:09:42;101202.59;;;19.37;64.03
68793;BME280;55778;54.346;10.210;2022-08-21T07:12:08;101207.03;;;19.52;61.37
68793;BME280;55778;54.346;10.210;2022-08-21T07:14:34;101202.47;;;19.59;59.53
68793;BME280;55778;54.346;10.210;2022-08-21T07:17:00;101202.44;;;19.74;60.06
68793;BME280;55778;54.346;10.210;2022-08-21T07:19:25;101202.78;;;19.86;58.67
68793;BME280;55778;54.346;10.210;2022-08-21T07:22:07;101201.13;;;19.91;59.47
68793;BME280;55778;54.346;10.210;2022-08-21T07:24:43;101205.97;;;20.04;57.50
68793;BME280;55778;54.346;10.210;2022-08-21T07:27:13;101198.59;;;20.11;57.36
68793;BME280;55778;54.346;10.210;2022-08-21T07:29:40;101205.44;;;20.29;56.36
68793;BME280;55778;54.346;10.210;2022-08-21T07:32:14;101205.25;;;20.31;56.01
68793;BME280;55778;54.346;10.210;2022-08-21T07:34:41;101207.13;;;20.51;54.99
68793;BME280;55778;54.346;10.210;2022-08-21T07:37:16;101203.38;;;20.59;54.37
68793;BME280;55778;54.346;10.210;2022-08-21T07:39:43;101199.34;;;20.61;54.55
68793;BME280;55778;54.346;10.210;2022-08-21T07:42:09;101196.44;;;20.69;55.98
68793;BME280;55778;54.346;10.210;2022-08-21T07:44:36;101184.16;;;20.78;53.86
68793;BME280;55778;54.346;10.210;2022-08-21T07:47:01;101181.31;;;20.99;53.60
68793;BME280;55778;54.346;10.210;2022-08-21T07:49:27;101182.56;;;21.24;53.59
68793;BME280;55778;54.346;10.210;2022-08-21T07:51:53;101189.88;;;21.38;51.74
68793;BME280;55778;54.346;10.210;2022-08-21T07:54:23;101180.94;;;21.43;50.21
68793;BME280;55778;54.346;10.210;2022-08-21T07:56:57;101186.06;;;21.80;48.51
68793;BME280;55778;54.346;10.210;2022-08-21T07:59:22;101184.97;;;21.81;47.44
68793;BME280;55778;54.346;10.210;2022-08-21T08:01:52;101188.34;;;21.70;48.71
68793;BME280;55778;54.346;10.210;2022-08-21T08:04:19;101184.16;;;21.87;47.48
68793;BME280;55778;54.346;10.210;2022-08-21T08:06:52;101179.50;;;22.01;47.28
68793;BME280;55778;54.346;10.210;2022-08-21T08:09:17;101182.28;;;22.14;46.87
68793;BME280;55778;54.346;10.210;2022-08-21T08:11:43;101181.44;;;22.07;48.24
68793;BME280;55778;54.346;10.210;2022-08-21T08:14:08;101178.03;;;22.37;46.98
68793;BME280;55778;54.346;10.210;2022-08-21T08:16:39;101174.69;;;22.55;48.31
68793;BME280;55778;54.346;10.210;2022-08-21T08:19:05;101176.59;;;22.67;48.09
68793;BME280;55778;54.346;10.210;2022-08-21T08:21:31;101172.13;;;22.60;46.22
68793;BME280;55778;54.346;10.210;2022-08-21T08:23:59;101171.03;;;22.87;45.68
68793;BME280;55778;54.346;10.210;2022-08-21T08:26:24;101165.47;;;22.93;45.02
68793;BME280;55778;54.346;10.210;2022-08-21T08:28:57;101164.81;;;22.85;44.76
68793;BME280;55778;54.346;10.210;2022-08-21T08:31:22;101164.00;;;22.84;45.02
68793;BME280;55778;54.346;10.210;2022-08-21T08:33:48;101156.72;;;22.90;45.42
68793;BME280;55778;54.346;10.210;2022-08-21T08:36:32;101157.34;;;22.85;46.04
68793;BME280;55778;54.346;10.210;2022-08-21T08:39:04;101165.22;;;23.01;45.78
68793;BME280;55778;54.346;10.210;2022-08-21T08:41:30;101153.72;;;22.98;46.23
68793;BME280;55778;54.346;10.210;2022-08-21T08:44:04;101161.13;;;23.36;45.68
68793;BME280;55778;54.346;10.210;2022-08-21T08:46:49;101159.81;;;23.39;45.17
68793;BME280;55778;54.346;10.210;2022-08-21T08:49:19;101154.09;;;23.08;46.58
68793;BME280;55778;54.346;10.210;2022-08-21T08:54:36;101144.88;;;23.33;46.83
68793;BME280;55778;54.346;10.210;2022-08-21T08:57:10;101144.16;;;23.95;46.40
68793;BME280;55778;54.346;10.210;2022-08-21T08:59:40;101144.97;;;24.33;44.50
68793;BME280;55778;54.346;10.210;2022-08-21T09:02:09;101137.31;;;24.53;43.74
68793;BME280;55778;54.346;10.210;2022-08-21T09:04:36;101135.06;;;24.68;44.44
68793;BME280;55778;54.346;10.210;2022-08-21T09:09:48;101137.09;;;24.79;42.50
68793;BME280;55778;54.346;10.210;2022-08-21T09:12:38;101141.06;;;24.41;45.51
68793;BME280;55778;54.346;10.210;2022-08-21T09:15:32;101140.91;;;24.36;43.82
68793;BME280;55778;54.346;10.210;2022-08-21T09:23:46;101144.84;;;23.84;46.85
68793;BME280;55778;54.346;10.210;2022-08-21T09:26:17;101142.75;;;23.73;46.84
68793;BME280;55778;54.346;10.210;2022-08-21T09:28:43;101141.47;;;23.76;47.08
68793;BME280;55778;54.346;10.210;2022-08-21T09:34:05;101138.09;;;24.67;44.24
68793;BME280;55778;54.346;10.210;2022-08-21T09:36:44;101126.16;;;25.20;43.24
68793;BME280;55778;54.346;10.210;2022-08-21T09:39:13;101132.91;;;25.13;43.35
68793;BME280;55778;54.346;10.210;2022-08-21T09:41:58;101124.47;;;25.38;43.30
68793;BME280;55778;54.346;10.210;2022-08-21T09:44:27;101126.38;;;25.55;44.10
68793;BME280;55778;54.346;10.210;2022-08-21T09:46:53;101129.41;;;24.99;44.22
68793;BME280;55778;54.346;10.210;2022-08-21T09:49:33;101130.22;;;25.00;43.99
68793;BME280;55778;54.346;10.210;2022-08-21T09:51:59;101112.91;;;24.73;44.58
68793;BME280;55778;54.346;10.210;2022-08-21T09:54:34;101126.59;;;23.95;46.13
68793;BME280;55778;54.346;10.210;2022-08-21T09:57:14;101112.88;;;24.55;46.93
68793;BME280;55778;54.346;10.210;2022-08-21T10:02:55;101119.47;;;25.03;45.23
68793;BME280;55778;54.346;10.210;2022-08-21T10:05:31;101105.25;;;25.77;41.99
68793;BME280;55778;54.346;10.210;2022-08-21T10:07:57;101112.44;;;26.14;41.34
68793;BME280;55778;54.346;10.210;2022-08-21T10:10:26;101110.13;;;26.11;43.28
68793;BME280;55778;54.346;10.210;2022-08-21T10:24:40;101102.44;;;26.36;43.73
68793;BME280;55778;54.346;10.210;2022-08-21T10:30:36;101098.19;;;27.77;38.67
68793;BME280;55778;54.346;10.210;2022-08-21T10:33:16;101089.94;;;27.99;38.45
68793;BME280;55778;54.346;10.210;2022-08-21T10:43:43;101097.44;;;26.50;39.71
68793;BME280;55778;54.346;10.210;2022-08-21T10:49:16;101102.13;;;26.90;38.49
68793;BME280;55778;54.346;10.210;2022-08-21T10:54:45;101099.09;;;27.94;37.16
68793;BME280;55778;54.346;10.210;2022-08-21T10:57:22;101098.63;;;28.58;35.44
68793;BME280;55778;54.346;10.210;2022-08-21T11:00:14;101093.81;;;28.92;33.89
68793;BME280;55778;54.346;10.210;2022-08-21T11:02:49;101104.88;;;29.15;34.00
68793;BME280;55778;54.346;10.210;2022-08-21T11:07:58;101104.16;;;27.41;38.61
68793;BME280;55778;54.346;10.210;2022-08-21T11:10:40;101108.53;;;27.14;38.18
68793;BME280;55778;54.346;10.210;2022-08-21T11:13:21;101112.59;;;26.19;41.49
68793;BME280;55778;54.346;10.210;2022-08-21T11:22:00;101106.44;;;24.97;40.63
68793;BME280;55778;54.346;10.210;2022-08-21T11:24:34;101114.84;;;24.48;41.46
68793;BME280;55778;54.346;10.210;2022-08-21T11:27:22;101119.28;;;23.63;41.70
68793;BME280;55778;54.346;10.210;2022-08-21T11:30:02;101121.97;;;23.38;44.12
68793;BME280;55778;54.346;10.210;2022-08-21T11:35:20;101107.22;;;24.62;40.79
68793;BME280;55778;54.346;10.210;2022-08-21T11:51:27;101111.50;;;26.73;36.40
68793;BME280;55778;54.346;10.210;2022-08-21T11:56:38;101101.97;;;27.32;32.83
68793;BME280;55778;54.346;10.210;2022-08-21T11:59:22;101105.66;;;27.60;33.33
68793;BME280;55778;54.346;10.210;2022-08-21T12:01:50;101107.94;;;28.03;32.30
68793;BME280;55778;54.346;10.210;2022-08-21T12:06:52;101105.25;;;26.07;32.45
68793;BME280;55778;54.346;10.210;2022-08-21T12:12:01;101098.66;;;27.46;29.39
68793;BME280;55778;54.346;10.210;2022-08-21T12:14:40;101096.88;;;27.17;30.59
68793;BME280;55778;54.346;10.210;2022-08-21T12:17:08;101097.09;;;27.39;31.77
68793;BME280;55778;54.346;10.210;2022-08-21T12:19:34;101098.66;;;28.30;29.71
68793;BME280;55778;54.346;10.210;2022-08-21T12:22:08;101096.59;;;27.81;29.21
68793;BME280;55778;54.346;10.210;2022-08-21T12:27:19;101102.38;;;28.19;28.70
68793;BME280;55778;54.346;10.210;2022-08-21T12:30:00;101105.34;;;28.57;28.14
68793;BME280;55778;54.346;10.210;2022-08-21T12:32:42;101111.19;;;27.83;30.50
68793;BME280;55778;54.346;10.210;2022-08-21T12:35:15;101106.50;;;26.98;30.51
68793;BME280;55778;54.346;10.210;2022-08-21T12:37:48;101091.41;;;27.10;31.94
68793;BME280;55778;54.346;10.210;2022-08-21T12:40:25;101091.50;;;27.15;30.63
68793;BME280;55778;54.346;10.210;2022-08-21T12:42:55;101096.78;;;26.89;30.84
68793;BME280;55778;54.346;10.210;2022-08-21T12:48:11;101085.47;;;26.84;31.31
68793;BME280;55778;54.346;10.210;2022-08-21T12:50:49;101097.19;;;25.87;32.91
68793;BME280;55778;54.346;10.210;2022-08-21T12:53:24;101091.53;;;25.28;34.21
68793;BME280;55778;54.346;10.210;2022-08-21T12:55:51;101091.16;;;25.43;35.83
68793;BME280;55778;54.346;10.210;2022-08-21T12:58:21;101094.25;;;25.34;35.27
68793;BME280;55778;54.346;10.210;2022-08-21T13:00:54;101088.69;;;24.74;35.90
68793;BME280;55778;54.346;10.210;2022-08-21T13:03:22;101085.47;;;24.95;37.08
68793;BME280;55778;54.346;10.210;2022-08-21T13:05:48;101080.88;;;24.82;35.15
68793;BME280;55778;54.346;10.210;2022-08-21T13:08:17;101077.97;;;25.31;34.15
68793;BME280;55778;54.346;10.210;2022-08-21T13:10:47;101084.06;;;25.22;35.24
68793;BME280;55778;54.346;10.210;2022-08-21T13:13:20;101082.88;;;25.66;33.43
68793;BME280;55778;54.346;10.210;2022-08-21T13:15:46;101085.53;;;25.24;34.04
68793;BME280;55778;54.346;10.210;2022-08-21T13:18:24;101082.22;;;25.16;34.38
68793;BME280;55778;54.346;10.210;2022-08-21T13:20:50;101079.72;;;25.08;34.08
68793;BME280;55778;54.346;10.210;2022-08-21T13:25:44;101080.34;;;24.92;34.73
68793;BME280;55778;54.346;10.210;2022-08-21T13:28:11;101074.22;;;24.83;36.78
68793;BME280;55778;54.346;10.210;2022-08-21T13:30:47;101076.56;;;24.62;36.32
68793;BME280;55778;54.346;10.210;2022-08-21T13:33:16;101076.88;;;24.54;35.39
68793;BME280;55778;54.346;10.210;2022-08-21T13:36:11;101076.63;;;24.31;35.26
68793;BME280;55778;54.346;10.210;2022-08-21T13:38:41;101074.94;;;24.30;36.45
68793;BME280;55778;54.346;10.210;2022-08-21T13:41:20;101073.16;;;24.35;36.90
68793;BME280;55778;54.346;10.210;2022-08-21T13:43:50;101073.91;;;24.49;37.07
68793;BME280;55778;54.346;10.210;2022-08-21T13:46:22;101075.63;;;24.74;36.16
68793;BME280;55778;54.346;10.210;2022-08-21T13:48:49;101071.78;;;24.69;36.37
68793;BME280;55778;54.346;10.210;2022-08-21T13:51:15;101063.69;;;24.85;35.60
68793;BME280;55778;54.346;10.210;2022-08-21T13:56:06;101068.03;;;24.99;36.79
68793;BME280;55778;54.346;10.210;2022-08-21T13:58:44;101056.19;;;25.04;36.68
68793;BME280;55778;54.346;10.210;2022-08-21T14:03:53;101068.00;;;24.39;40.79
68793;BME280;55778;54.346;10.210;2022-08-21T14:06:24;101071.84;;;24.13;41.99
68793;BME280;55778;54.346;10.210;2022-08-21T14:08:59;101063.16;;;24.03;40.91
68793;BME280;55778;54.346;10.210;2022-08-21T14:11:28;101074.41;;;23.84;41.29
68793;BME280;55778;54.346;10.210;2022-08-21T14:14:02;101085.75;;;23.82;42.03
68793;BME280;55778;54.346;10.210;2022-08-21T14:16:41;101083.59;;;23.84;43.53
68793;BME280;55778;54.346;10.210;2022-08-21T14:19:20;101083.53;;;23.60;43.00
68793;BME280;55778;54.346;10.210;2022-08-21T14:21:46;101084.13;;;23.68;43.35
68793;BME280;55778;54.346;10.210;2022-08-21T14:24:27;101085.75;;;23.82;44.44
68793;BME280;55778;54.346;10.210;2022-08-21T14:26:56;101079.09;;;23.83;44.19
68793;BME280;55778;54.346;10.210;2022-08-21T14:29:26;101085.25;;;23.98;44.46